Time;durP1;ratioP1;P1;durP2;ratioP2;P2;SDS_P1;SDS_P2;PMS_P1;PMS_P2;Temp;Humidity;BMP_temperature;BMP_pressure;BME280_temperature;BME280_humidity;BME280_pressure;Samples;Min_cycle;Max_cycle;Signal;HPM_P1;HPM_P2
2023/11/05 00:02:13;;;;;;;1.80;0.80;;;9.80;1.30;;;;;;4993404;28;20203;-67
2023/11/05 00:04:38;;;;;;;1.70;0.50;;;9.80;1.30;;;;;;4995265;28;20216;-67
2023/11/05 00:07:05;;;;;;;1.60;0.50;;;9.70;1.30;;;;;;4994648;28;20183;-67
2023/11/05 00:09:30;;;;;;;1.60;0.60;;;9.70;1.30;;;;;;4994796;28;20172;-67
2023/11/05 00:11:56;;;;;;;3.00;0.70;;;9.70;1.30;;;;;;4994422;28;20414;-66
2023/11/05 00:14:21;;;;;;;1.60;0.50;;;9.70;1.00;;;;;;4994109;28;20188;-66
2023/11/05 00:16:47;;;;;;;1.90;0.93;;;9.80;1.00;;;;;;4994805;28;20207;-66
2023/11/05 00:19:13;;;;;;;1.60;0.70;;;9.80;1.00;;;;;;4993239;28;20223;-67
2023/11/05 00:21:38;;;;;;;1.80;0.60;;;9.80;1.00;;;;;;4994383;28;20176;-67
2023/11/05 00:24:04;;;;;;;1.60;0.60;;;9.90;1.00;;;;;;4994508;28;20244;-66
2023/11/05 00:26:29;;;;;;;2.50;0.60;;;9.90;1.00;;;;;;4994906;28;20662;-67
2023/11/05 00:28:55;;;;;;;1.50;0.50;;;9.80;1.00;;;;;;4994734;28;20181;-68
2023/11/05 00:31:21;;;;;;;2.23;0.50;;;9.90;1.00;;;;;;4994504;28;20227;-67
2023/11/05 00:33:46;;;;;;;1.70;0.70;;;9.90;1.00;;;;;;4994577;28;20196;-66
2023/11/05 00:36:12;;;;;;;1.60;0.67;;;9.90;1.00;;;;;;4995102;28;20188;-67
2023/11/05 00:38:37;;;;;;;1.60;0.70;;;9.90;1.00;;;;;;4993068;28;20239;-67
2023/11/05 00:41:04;;;;;;;1.70;0.60;;;9.90;1.00;;;;;;4994268;28;20185;-68
2023/11/05 00:43:30;;;;;;;4.17;0.93;;;9.80;1.00;;;;;;4994464;28;20570;-67
2023/11/05 00:45:56;;;;;;;8.10;0.80;;;9.70;1.00;;;;;;4994357;28;20416;-67
2023/11/05 00:48:21;;;;;;;3.67;0.80;;;9.70;1.00;;;;;;4994557;28;20173;-67
2023/11/05 00:50:47;;;;;;;1.73;0.70;;;9.90;1.00;;;;;;4994411;28;20418;-67
2023/11/05 00:53:12;;;;;;;2.30;1.13;;;9.90;1.00;;;;;;4994208;28;20672;-67
2023/11/05 00:55:38;;;;;;;2.10;1.00;;;9.90;1.00;;;;;;4994317;28;20204;-68
2023/11/05 00:58:04;;;;;;;1.80;0.90;;;9.90;1.00;;;;;;5009325;28;20233;-67
2023/11/05 01:00:29;;;;;;;2.33;0.80;;;10.00;1.00;;;;;;4993846;28;20182;-67
2023/11/05 01:02:55;;;;;;;3.60;0.80;;;10.00;1.00;;;;;;4993950;28;20228;-68
2023/11/05 01:05:20;;;;;;;1.60;0.60;;;9.90;1.00;;;;;;4994065;28;20200;-67
2023/11/05 01:07:46;;;;;;;1.50;0.60;;;10.00;1.00;;;;;;4993884;28;20184;-67
2023/11/05 01:10:11;;;;;;;2.10;0.90;;;10.00;1.00;;;;;;4993966;28;20186;-67
2023/11/05 01:12:37;;;;;;;1.70;0.60;;;10.00;1.00;;;;;;5011282;23;20283;-69
2023/11/05 01:15:03;;;;;;;1.90;0.60;;;9.90;1.00;;;;;;5010604;28;20271;-70
2023/11/05 01:17:29;;;;;;;3.17;0.73;;;10.10;1.00;;;;;;4993374;28;20173;-69
2023/11/05 01:19:55;;;;;;;2.13;0.67;;;10.20;1.00;;;;;;5006283;28;20454;-70
2023/11/05 01:22:22;;;;;;;1.90;0.90;;;10.20;1.00;;;;;;4991598;28;20335;-69
2023/11/05 01:24:48;;;;;;;3.23;0.80;;;10.20;1.00;;;;;;4992588;28;20177;-69
2023/11/05 01:27:13;;;;;;;2.00;0.80;;;10.30;1.00;;;;;;4992744;28;20421;-69
2023/11/05 01:29:39;;;;;;;2.77;1.07;;;10.40;1.00;;;;;;4993184;28;20420;-69
2023/11/05 01:32:06;;;;;;;2.27;0.83;;;10.40;1.00;;;;;;4975018;28;20193;-68
2023/11/05 01:34:32;;;;;;;4.40;1.30;;;10.30;1.00;;;;;;4972422;28;20217;-68
2023/11/05 01:37:00;;;;;;;1.87;1.00;;;10.20;1.00;;;;;;4974231;28;20452;-68
2023/11/05 01:39:26;;;;;;;1.80;0.70;;;10.30;1.00;;;;;;4973696;28;20546;-68
2023/11/05 01:41:51;;;;;;;1.70;0.70;;;10.30;1.00;;;;;;4976364;28;20439;-68
2023/11/05 01:44:17;;;;;;;3.03;1.13;;;10.20;1.00;;;;;;4992945;28;20334;-69
2023/11/05 01:46:43;;;;;;;2.03;1.23;;;10.20;1.00;;;;;;5008096;28;20673;-68
2023/11/05 01:49:09;;;;;;;2.63;1.00;;;10.20;1.00;;;;;;4992741;28;20192;-69
2023/11/05 01:51:36;;;;;;;2.90;0.70;;;10.20;1.00;;;;;;4992704;28;20416;-69
2023/11/05 01:54:03;;;;;;;6.53;1.50;;;10.20;1.00;;;;;;4992748;28;20222;-70
2023/11/05 01:56:30;;;;;;;2.47;1.17;;;10.20;1.00;;;;;;4992679;28;20420;-69
2023/11/05 01:58:57;;;;;;;4.80;1.00;;;10.10;1.00;;;;;;5007297;28;20618;-69
2023/11/05 02:01:26;;;;;;;2.97;0.90;;;10.10;1.00;;;;;;5007454;28;20431;-68
2023/11/05 02:03:52;;;;;;;1.63;0.70;;;10.10;1.00;;;;;;5007410;28;20822;-68
2023/11/05 02:06:18;;;;;;;1.90;1.20;;;10.20;1.00;;;;;;4992458;28;20416;-70
2023/11/05 02:08:44;;;;;;;3.70;1.30;;;10.20;1.00;;;;;;4992531;28;20196;-70
2023/11/05 02:11:09;;;;;;;2.60;0.80;;;10.20;1.00;;;;;;4992174;28;20255;-69
2023/11/05 02:13:54;;;;;;;3.30;0.90;;;10.10;1.00;;;;;;4992269;28;20298;-69
2023/11/05 02:16:21;;;;;;;3.30;0.87;;;10.10;1.00;;;;;;5007366;28;20192;-70
2023/11/05 02:18:48;;;;;;;2.10;0.73;;;10.20;1.00;;;;;;4991868;28;20462;-69
2023/11/05 02:21:20;;;;;;;2.23;0.97;;;10.20;1.00;;;;;;4992290;28;20424;-69
2023/11/05 02:23:47;;;;;;;3.63;1.27;;;10.30;1.00;;;;;;4992238;28;21363;-70
2023/11/05 02:26:13;;;;;;;2.67;0.70;;;10.20;1.00;;;;;;4992111;28;20499;-69
2023/11/05 02:28:38;;;;;;;4.57;1.20;;;10.30;1.00;;;;;;4992050;28;20513;-68
2023/11/05 02:31:04;;;;;;;6.33;1.60;;;10.30;1.00;;;;;;4991838;28;20724;-69
2023/11/05 02:33:30;;;;;;;1.80;1.00;;;10.40;1.00;;;;;;4992051;28;20283;-69
2023/11/05 02:35:56;;;;;;;2.37;0.90;;;10.40;1.00;;;;;;4991877;28;20291;-69
2023/11/05 02:38:21;;;;;;;4.63;1.77;;;10.40;1.00;;;;;;4988162;28;20468;-69
2023/11/05 02:40:47;;;;;;;3.83;1.53;;;10.40;1.00;;;;;;4990409;28;20183;-70
2023/11/05 02:43:12;;;;;;;7.90;1.40;;;10.30;1.00;;;;;;4988726;28;20201;-70
2023/11/05 02:45:38;;;;;;;3.20;1.10;;;10.30;1.00;;;;;;4972460;28;20264;-70
2023/11/05 02:48:04;;;;;;;4.03;1.33;;;10.30;1.00;;;;;;4987491;28;20296;-70
2023/11/05 02:50:30;;;;;;;2.30;1.00;;;10.30;1.00;;;;;;4972386;28;20953;-70
2023/11/05 02:52:56;;;;;;;5.07;1.30;;;10.20;1.00;;;;;;4977131;28;20215;-70
2023/11/05 02:55:21;;;;;;;3.93;0.80;;;10.20;1.00;;;;;;4987494;28;20581;-70
2023/11/05 02:57:47;;;;;;;2.20;1.00;;;10.20;1.00;;;;;;4970997;28;20460;-70
2023/11/05 03:00:14;;;;;;;4.73;0.97;;;10.10;1.00;;;;;;4972489;28;20639;-73
2023/11/05 03:02:39;;;;;;;2.87;1.10;;;10.10;1.00;;;;;;4972363;28;20192;-70
2023/11/05 03:05:06;;;;;;;2.93;1.30;;;10.10;1.00;;;;;;4994922;28;20799;-68
2023/11/05 03:07:34;;;;;;;2.17;0.70;;;10.10;1.00;;;;;;5006814;28;20836;-69
2023/11/05 03:10:00;;;;;;;4.73;1.33;;;10.00;1.00;;;;;;5006759;28;20514;-68
2023/11/05 03:12:26;;;;;;;2.30;1.20;;;10.10;1.00;;;;;;4991519;28;20869;-69
2023/11/05 03:14:52;;;;;;;5.93;1.47;;;10.30;1.00;;;;;;5003259;28;20193;-69
2023/11/05 03:17:17;;;;;;;2.57;1.40;;;10.30;1.00;;;;;;4972531;28;20764;-68
2023/11/05 03:19:43;;;;;;;2.80;1.27;;;10.40;1.00;;;;;;4990270;28;20223;-69
2023/11/05 03:22:09;;;;;;;5.93;1.47;;;10.40;1.00;;;;;;4991703;28;20180;-68
2023/11/05 03:24:35;;;;;;;2.03;1.23;;;10.50;1.00;;;;;;4991847;28;20776;-67
2023/11/05 03:27:00;;;;;;;2.33;1.40;;;10.40;1.00;;;;;;4991744;28;20412;-68
2023/11/05 03:29:26;;;;;;;6.33;1.43;;;10.40;1.00;;;;;;4991468;28;20615;-68
2023/11/05 03:31:52;;;;;;;2.37;1.10;;;10.30;1.00;;;;;;5006300;28;20181;-68
2023/11/05 03:34:18;;;;;;;2.00;1.00;;;10.20;1.00;;;;;;4991436;28;20458;-67
2023/11/05 03:36:45;;;;;;;2.73;1.10;;;10.20;1.00;;;;;;4991423;28;20183;-69
2023/11/05 03:39:10;;;;;;;3.50;1.20;;;10.20;1.00;;;;;;4991583;28;20873;-69
2023/11/05 03:41:36;;;;;;;3.43;1.20;;;10.20;1.00;;;;;;4991181;28;20416;-68
2023/11/05 03:44:02;;;;;;;3.00;1.43;;;10.20;1.00;;;;;;4991262;28;20203;-69
2023/11/05 03:46:27;;;;;;;2.77;1.30;;;10.30;1.00;;;;;;4991320;28;20275;-68
2023/11/05 03:48:52;;;;;;;4.23;1.10;;;10.50;1.00;;;;;;4993563;28;20188;-68
2023/11/05 03:51:18;;;;;;;2.73;0.80;;;10.60;1.00;;;;;;5009668;28;20235;-68
2023/11/05 03:53:45;;;;;;;1.97;1.00;;;10.70;1.00;;;;;;5009668;28;20200;-69
2023/11/05 03:56:11;;;;;;;2.20;1.10;;;11.10;1.00;;;;;;4994682;28;20259;-68
2023/11/05 03:58:39;;;;;;;2.60;1.77;;;11.10;1.00;;;;;;4994823;28;20554;-69
2023/11/05 04:01:07;;;;;;;2.63;1.10;;;11.20;1.00;;;;;;4994422;28;20412;-68
2023/11/05 04:03:33;;;;;;;3.90;1.60;;;11.30;1.00;;;;;;4994615;28;20434;-68
2023/11/05 04:05:59;;;;;;;3.60;1.40;;;11.30;1.00;;;;;;5009639;28;20846;-69
2023/11/05 04:08:26;;;;;;;2.77;1.27;;;11.30;1.00;;;;;;4994566;28;20418;-69
2023/11/05 04:10:51;;;;;;;1.90;1.17;;;11.20;1.00;;;;;;4994211;28;20420;-69
2023/11/05 04:13:17;;;;;;;3.10;1.00;;;11.20;1.00;;;;;;4994246;28;20456;-69
2023/11/05 04:15:42;;;;;;;3.30;1.43;;;11.20;1.00;;;;;;4994411;28;20192;-69
2023/11/05 04:18:08;;;;;;;4.40;1.60;;;11.10;1.00;;;;;;4994284;28;20208;-69
2023/11/05 04:20:33;;;;;;;1.83;0.83;;;11.10;1.00;;;;;;4994237;28;20553;-68
2023/11/05 04:22:59;;;;;;;2.27;0.90;;;11.10;1.00;;;;;;4994300;28;20193;-69
2023/11/05 04:25:25;;;;;;;4.63;1.40;;;11.30;1.00;;;;;;4994170;28;20181;-69
2023/11/05 04:27:50;;;;;;;1.80;1.00;;;11.40;1.00;;;;;;4994132;28;20171;-69
2023/11/05 04:30:16;;;;;;;2.10;1.00;;;11.30;1.00;;;;;;4994139;28;20416;-69
2023/11/05 04:32:43;;;;;;;4.13;1.03;;;11.50;1.00;;;;;;4993615;28;20268;-69
2023/11/05 04:35:08;;;;;;;3.07;1.40;;;11.50;1.00;;;;;;4994015;28;20183;-69
2023/11/05 04:37:34;;;;;;;1.90;1.00;;;11.40;1.00;;;;;;4993993;28;20420;-69
2023/11/05 04:40:01;;;;;;;2.53;1.30;;;11.50;1.00;;;;;;4992354;28;20190;-69
2023/11/05 04:42:29;;;;;;;3.00;1.53;;;11.50;1.00;;;;;;4991755;28;20649;-69
2023/11/05 04:44:55;;;;;;;4.37;1.20;;;11.40;1.00;;;;;;4993969;28;20505;-69
2023/11/05 04:47:20;;;;;;;5.13;1.20;;;11.30;1.00;;;;;;4993741;28;20420;-69
2023/11/05 04:49:46;;;;;;;2.67;1.37;;;11.30;1.00;;;;;;4994057;28;20733;-69
2023/11/05 04:52:12;;;;;;;1.77;1.03;;;11.40;1.00;;;;;;4993469;28;20192;-69
2023/11/05 04:54:41;;;;;;;2.30;1.20;;;11.40;1.00;;;;;;4993781;28;20467;-69
2023/11/05 04:57:06;;;;;;;2.43;1.20;;;11.40;1.00;;;;;;5009269;28;20431;-69
2023/11/05 04:59:33;;;;;;;1.93;1.00;;;11.40;1.00;;;;;;4993416;28;20962;-69
2023/11/05 05:01:59;;;;;;;2.30;1.13;;;11.50;1.00;;;;;;4973934;28;20220;-70
2023/11/05 05:04:25;;;;;;;2.30;0.80;;;11.40;1.00;;;;;;4974184;28;20437;-69
2023/11/05 05:06:51;;;;;;;1.83;1.07;;;11.40;1.00;;;;;;4985772;28;20451;-69
2023/11/05 05:09:17;;;;;;;1.90;0.87;;;11.40;1.00;;;;;;4992093;28;20388;-69
2023/11/05 05:11:44;;;;;;;3.30;1.10;;;11.40;1.00;;;;;;5008339;28;20456;-70
2023/11/05 05:14:10;;;;;;;1.70;0.90;;;11.40;1.00;;;;;;4993049;28;20485;-70
2023/11/05 05:16:36;;;;;;;4.17;1.30;;;11.30;1.00;;;;;;4993540;28;20496;-69
2023/11/05 05:19:04;;;;;;;2.83;1.43;;;11.30;1.00;;;;;;4993287;28;20218;-70
2023/11/05 05:21:30;;;;;;;2.57;0.90;;;11.30;1.00;;;;;;4992765;28;20205;-70
2023/11/05 05:23:55;;;;;;;2.37;0.90;;;11.40;1.00;;;;;;4991652;28;20519;-70
2023/11/05 05:26:21;;;;;;;1.70;0.93;;;11.30;1.00;;;;;;4993102;28;20172;-70
2023/11/05 05:28:47;;;;;;;2.10;1.17;;;11.40;1.00;;;;;;4992932;28;20184;-70
2023/11/05 05:31:14;;;;;;;3.53;1.10;;;11.30;1.00;;;;;;4992767;28;20182;-70
2023/11/05 05:33:40;;;;;;;2.63;1.07;;;11.20;1.00;;;;;;4992523;28;20478;-70
2023/11/05 05:36:06;;;;;;;1.83;0.80;;;11.10;1.00;;;;;;4992902;28;20511;-69
2023/11/05 05:38:34;;;;;;;2.10;1.00;;;11.10;1.00;;;;;;5007645;28;20463;-68
2023/11/05 05:41:00;;;;;;;2.10;1.13;;;11.10;1.00;;;;;;4985635;28;20490;-70
2023/11/05 05:43:26;;;;;;;1.57;0.63;;;11.10;1.00;;;;;;4983009;28;20468;-69
2023/11/05 05:45:52;;;;;;;1.60;0.70;;;11.10;1.00;;;;;;4974138;28;20182;-69
2023/11/05 05:48:18;;;;;;;3.30;0.90;;;11.10;1.00;;;;;;4978562;28;20431;-69
2023/11/05 05:50:43;;;;;;;4.87;0.80;;;10.90;1.00;;;;;;4992782;28;20176;-69
2023/11/05 05:53:11;;;;;;;2.00;0.90;;;10.90;1.00;;;;;;4991341;28;20201;-69
2023/11/05 05:55:36;;;;;;;1.70;0.70;;;10.90;1.00;;;;;;4991687;28;20191;-69
2023/11/05 05:58:05;;;;;;;2.00;0.60;;;10.80;1.00;;;;;;4992939;28;20467;-69
2023/11/05 06:00:33;;;;;;;1.60;0.60;;;10.80;1.00;;;;;;4985210;28;20719;-69
2023/11/05 06:02:59;;;;;;;1.67;0.67;;;10.80;1.00;;;;;;4974875;28;20432;-69
2023/11/05 06:05:25;;;;;;;2.87;1.00;;;10.70;1.00;;;;;;4993005;28;20416;-69
2023/11/05 06:07:50;;;;;;;1.50;0.50;;;10.80;1.00;;;;;;4991824;28;20555;-69
2023/11/05 06:10:16;;;;;;;4.13;0.70;;;10.90;1.00;;;;;;5012182;28;20180;-69
2023/11/05 06:12:41;;;;;;;1.50;0.60;;;10.80;1.00;;;;;;5012114;28;20213;-69
2023/11/05 06:15:09;;;;;;;2.23;0.70;;;10.80;1.00;;;;;;5012301;28;20259;-69
2023/11/05 06:17:35;;;;;;;1.60;0.60;;;10.80;1.00;;;;;;5010795;28;20184;-69
2023/11/05 06:20:01;;;;;;;2.30;0.67;;;10.80;1.00;;;;;;4992147;28;20439;-69
2023/11/05 06:22:27;;;;;;;1.70;0.60;;;10.90;1.00;;;;;;4992172;28;20515;-69
2023/11/05 06:24:52;;;;;;;1.60;0.60;;;10.90;1.00;;;;;;4992214;28;20851;-69
2023/11/05 06:27:18;;;;;;;2.13;0.60;;;11.00;1.00;;;;;;5007460;28;20172;-68
2023/11/05 06:29:44;;;;;;;1.50;0.50;;;11.00;1.00;;;;;;5007099;28;20654;-67
2023/11/05 06:32:09;;;;;;;1.73;0.80;;;11.10;1.00;;;;;;4991970;28;20180;-69
2023/11/05 06:34:35;;;;;;;1.60;0.70;;;11.00;1.00;;;;;;4991925;28;20192;-69
2023/11/05 06:37:02;;;;;;;1.70;0.60;;;11.10;1.00;;;;;;4992251;28;20547;-69
2023/11/05 06:39:28;;;;;;;1.50;0.60;;;11.20;1.00;;;;;;5006323;28;20219;-68
2023/11/05 06:41:54;;;;;;;1.50;0.50;;;11.20;1.00;;;;;;5011404;28;20572;-68
2023/11/05 06:44:20;;;;;;;2.00;0.80;;;11.20;1.00;;;;;;5004091;28;20565;-68
2023/11/05 06:46:45;;;;;;;1.50;0.50;;;11.20;1.00;;;;;;4990631;28;20454;-69
2023/11/05 06:49:11;;;;;;;1.70;0.60;;;11.30;1.00;;;;;;5006326;28;20196;-70
2023/11/05 06:51:36;;;;;;;2.27;1.03;;;11.40;1.00;;;;;;4989789;28;20206;-69
2023/11/05 06:54:02;;;;;;;2.93;0.70;;;11.40;1.00;;;;;;4989886;28;20205;-70
2023/11/05 06:56:28;;;;;;;1.60;0.70;;;11.40;1.00;;;;;;4991472;28;20632;-69
2023/11/05 06:58:54;;;;;;;1.50;0.60;;;11.30;1.00;;;;;;5006824;28;20226;-69
2023/11/05 07:01:20;;;;;;;2.00;0.67;;;11.30;1.00;;;;;;4991756;28;20763;-69
2023/11/05 07:03:46;;;;;;;1.50;0.50;;;11.20;1.00;;;;;;5006830;28;20197;-69
2023/11/05 07:06:15;;;;;;;1.57;0.50;;;11.20;1.00;;;;;;4992065;28;20824;-70
2023/11/05 07:08:42;;;;;;;1.60;0.70;;;11.20;1.00;;;;;;4991706;28;20420;-69
2023/11/05 07:11:08;;;;;;;1.97;0.80;;;11.20;1.00;;;;;;5006978;28;20509;-69
2023/11/05 07:13:34;;;;;;;1.50;0.60;;;11.20;1.00;;;;;;4991238;28;20463;-70
2023/11/05 07:16:00;;;;;;;1.83;0.50;;;11.20;1.00;;;;;;4990434;28;20523;-69
2023/11/05 07:18:25;;;;;;;1.70;0.70;;;11.30;1.00;;;;;;4991460;28;20218;-70
2023/11/05 07:20:51;;;;;;;1.60;0.60;;;11.20;1.00;;;;;;4991088;28;20587;-68
2023/11/05 07:23:16;;;;;;;1.70;0.70;;;11.20;1.00;;;;;;4992934;28;20199;-68
2023/11/05 07:25:42;;;;;;;1.50;0.50;;;11.20;1.00;;;;;;5009985;28;20180;-68
2023/11/05 07:28:09;;;;;;;2.57;0.70;;;11.40;1.00;;;;;;4995415;28;20185;-68
2023/11/05 07:30:34;;;;;;;1.60;0.87;;;11.50;1.00;;;;;;4994786;28;20769;-69
2023/11/05 07:33:05;;;;;;;1.50;0.60;;;11.60;1.00;;;;;;4994763;28;20443;-69
2023/11/05 07:35:31;;;;;;;5.83;0.60;;;11.70;1.00;;;;;;4994952;28;20193;-68
2023/11/05 07:37:57;;;;;;;3.70;0.60;;;11.70;1.00;;;;;;4995015;28;20518;-68
2023/11/05 07:40:23;;;;;;;1.60;0.70;;;11.70;1.00;;;;;;4994880;28;20475;-69
2023/11/05 07:42:49;;;;;;;2.63;0.70;;;11.60;1.00;;;;;;4994502;28;20944;-68
2023/11/05 07:45:14;;;;;;;1.60;0.70;;;11.60;1.00;;;;;;4995170;28;20208;-69
2023/11/05 07:47:40;;;;;;;2.07;1.00;;;11.60;1.00;;;;;;4994932;28;20645;-68
2023/11/05 07:50:11;;;;;;;1.60;0.60;;;11.60;1.00;;;;;;4995089;28;20314;-68
2023/11/05 07:52:43;;;;;;;1.80;0.80;;;11.60;1.00;;;;;;4995163;28;20480;-68
2023/11/05 07:55:12;;;;;;;1.60;0.90;;;11.60;1.00;;;;;;4996121;28;20404;-69
2023/11/05 07:57:38;;;;;;;2.03;0.80;;;11.60;1.00;;;;;;4996245;28;20850;-69
2023/11/05 08:00:05;;;;;;;1.50;0.60;;;11.60;1.00;;;;;;4996448;28;20416;-69
2023/11/05 08:02:33;;;;;;;2.13;0.97;;;11.60;1.00;;;;;;4994996;28;20301;-69
2023/11/05 08:04:59;;;;;;;1.57;0.60;;;11.60;1.00;;;;;;4996149;28;20417;-69
2023/11/05 08:07:26;;;;;;;2.07;0.77;;;11.60;1.00;;;;;;4994755;28;20436;-69
2023/11/05 08:09:53;;;;;;;2.07;1.10;;;11.60;1.00;;;;;;4996301;28;20422;-69
2023/11/05 08:12:20;;;;;;;1.70;0.70;;;11.60;1.00;;;;;;4995803;28;20421;-69
2023/11/05 08:14:46;;;;;;;1.90;1.20;;;11.60;1.00;;;;;;4995887;28;20915;-69
2023/11/05 08:17:12;;;;;;;1.87;0.90;;;11.50;1.00;;;;;;4996324;28;20428;-69
2023/11/05 08:19:37;;;;;;;2.13;0.67;;;11.50;1.00;;;;;;4996168;28;20222;-69
2023/11/05 08:22:04;;;;;;;1.60;0.70;;;11.60;1.00;;;;;;4996286;28;20216;-69
2023/11/05 08:24:29;;;;;;;1.70;0.90;;;11.70;1.00;;;;;;4995935;28;20613;-69
2023/11/05 08:26:55;;;;;;;1.87;0.70;;;11.80;1.00;;;;;;4996011;28;20459;-68
2023/11/05 08:29:20;;;;;;;1.80;0.80;;;11.80;1.00;;;;;;4994951;28;20187;-68
2023/11/05 08:31:46;;;;;;;1.80;0.70;;;11.80;1.00;;;;;;4994083;28;20185;-67
2023/11/05 08:34:12;;;;;;;1.60;0.77;;;11.80;1.00;;;;;;4993824;28;20197;-68
2023/11/05 08:36:38;;;;;;;2.60;0.80;;;11.70;1.00;;;;;;4993431;28;20934;-68
2023/11/05 08:39:08;;;;;;;1.80;0.70;;;11.60;1.00;;;;;;4993834;28;20213;-68
2023/11/05 08:41:41;;;;;;;2.10;0.70;;;11.60;1.00;;;;;;4993571;28;20192;-68
2023/11/05 08:44:09;;;;;;;1.80;0.80;;;11.60;1.00;;;;;;4993797;28;20432;-67
2023/11/05 08:46:35;;;;;;;1.80;0.77;;;11.60;1.00;;;;;;4993697;28;20911;-69
2023/11/05 08:49:02;;;;;;;2.10;0.70;;;11.70;1.00;;;;;;4992023;28;20486;-68
2023/11/05 08:51:28;;;;;;;1.70;0.67;;;11.70;1.00;;;;;;4993423;28;20181;-68
2023/11/05 08:53:54;;;;;;;3.03;1.10;;;11.80;1.00;;;;;;5008567;28;21059;-68
2023/11/05 08:56:23;;;;;;;1.70;0.70;;;11.90;1.00;;;;;;4993074;28;20427;-68
2023/11/05 08:58:49;;;;;;;3.00;0.87;;;12.00;1.00;;;;;;5008138;28;20474;-68
2023/11/05 09:01:18;;;;;;;2.03;0.83;;;12.10;1.00;;;;;;4993325;28;20820;-68
2023/11/05 09:03:45;;;;;;;1.80;0.90;;;12.20;1.00;;;;;;4992927;28;20601;-69
2023/11/05 09:06:11;;;;;;;1.70;0.80;;;12.20;1.00;;;;;;5016654;28;20420;-68
2023/11/05 09:08:38;;;;;;;2.10;0.90;;;12.40;1.00;;;;;;5008525;28;20810;-69
2023/11/05 09:11:04;;;;;;;1.90;0.80;;;12.50;1.00;;;;;;5012576;23;20175;-67
2023/11/05 09:13:30;;;;;;;1.70;0.80;;;12.70;1.00;;;;;;5041532;28;20984;-66
2023/11/05 09:15:55;;;;;;;2.03;0.90;;;12.70;1.00;;;;;;5020412;28;20410;-67
2023/11/05 09:18:21;;;;;;;3.10;1.10;;;12.70;1.00;;;;;;5027006;28;20261;-67
2023/11/05 09:20:46;;;;;;;1.70;0.80;;;12.70;1.00;;;;;;5036553;28;20643;-66
2023/11/05 09:23:12;;;;;;;3.03;1.03;;;12.70;1.00;;;;;;5018091;28;20266;-66
2023/11/05 09:25:38;;;;;;;1.70;0.80;;;12.70;1.00;;;;;;5015966;28;20180;-66
2023/11/05 09:28:05;;;;;;;2.07;0.80;;;12.70;1.00;;;;;;5000598;28;20251;-67
2023/11/05 09:30:31;;;;;;;2.70;1.10;;;12.80;1.00;;;;;;5019090;28;20184;-66
2023/11/05 09:32:56;;;;;;;1.70;0.70;;;12.80;1.00;;;;;;4999957;28;20446;-65
2023/11/05 09:35:22;;;;;;;1.83;0.77;;;12.80;1.00;;;;;;5019482;28;20213;-67
2023/11/05 09:37:47;;;;;;;1.60;0.70;;;12.90;1.00;;;;;;5019754;28;20188;-67
2023/11/05 09:40:15;;;;;;;2.10;0.90;;;13.00;1.00;;;;;;5015728;28;20186;-66
2023/11/05 09:43:01;;;;;;;1.90;0.90;;;12.90;1.00;;;;;;5017410;28;20250;-66
2023/11/05 09:45:28;;;;;;;1.83;0.80;;;13.00;1.00;;;;;;5017330;28;20432;-68
2023/11/05 09:47:55;;;;;;;2.00;0.73;;;13.10;1.00;;;;;;5021174;28;20914;-69
2023/11/05 09:50:21;;;;;;;7.10;1.07;;;13.50;1.00;;;;;;5022529;28;20425;-66
2023/11/05 09:52:47;;;;;;;2.00;1.07;;;13.80;1.00;;;;;;5018948;28;20435;-67
2023/11/05 09:55:13;;;;;;;1.70;0.70;;;13.70;1.00;;;;;;5013547;28;20249;-66
2023/11/05 09:57:38;;;;;;;1.67;0.77;;;13.90;1.00;;;;;;5015262;28;20649;-66
2023/11/05 10:00:09;;;;;;;1.90;0.90;;;13.60;1.00;;;;;;5016562;28;20441;-66
2023/11/05 10:02:57;;;;;;;1.87;0.70;;;13.70;1.00;;;;;;5015380;28;20245;-67
2023/11/05 10:05:29;;;;;;;2.00;0.90;;;14.10;1.00;;;;;;5013097;28;20514;-65
2023/11/05 10:07:55;;;;;;;1.60;0.67;;;14.00;1.00;;;;;;5013936;28;20426;-66
2023/11/05 10:10:21;;;;;;;2.20;0.90;;;14.30;1.00;;;;;;5010926;28;20419;-66
2023/11/05 10:12:48;;;;;;;1.70;0.90;;;14.50;1.00;;;;;;5007597;28;20454;-67
2023/11/05 10:15:13;;;;;;;1.70;0.83;;;14.50;1.00;;;;;;5007828;28;20809;-67
2023/11/05 10:17:39;;;;;;;3.20;0.70;;;14.80;1.00;;;;;;5000590;28;20423;-67
2023/11/05 10:20:06;;;;;;;3.60;0.90;;;14.40;1.00;;;;;;5007935;28;20259;-67
2023/11/05 10:22:32;;;;;;;6.40;1.37;;;14.10;1.00;;;;;;5008024;28;20207;-67
2023/11/05 10:24:58;;;;;;;3.30;0.77;;;13.70;1.00;;;;;;5008935;28;21050;-66
2023/11/05 10:27:28;;;;;;;2.93;1.80;;;13.00;1.00;;;;;;5009757;28;20502;-69
2023/11/05 10:29:57;;;;;;;1.67;0.67;;;12.90;1.00;;;;;;5008495;28;20187;-67
2023/11/05 10:32:23;;;;;;;2.13;0.80;;;12.90;1.00;;;;;;5007325;28;20449;-66
2023/11/05 10:34:52;;;;;;;2.27;1.00;;;13.00;1.00;;;;;;5007197;28;20851;-66
2023/11/05 10:37:18;;;;;;;1.97;0.80;;;13.40;1.00;;;;;;5008105;28;20432;-66
2023/11/05 10:39:43;;;;;;;7.70;1.40;;;13.20;1.00;;;;;;5007592;28;20627;-67
2023/11/05 10:42:12;;;;;;;2.87;0.70;;;13.20;1.00;;;;;;5005979;28;20540;-67
2023/11/05 10:44:41;;;;;;;1.70;0.60;;;13.20;1.00;;;;;;5006201;28;20179;-67
2023/11/05 10:47:08;;;;;;;2.27;0.80;;;13.20;1.00;;;;;;5010355;28;20986;-67
2023/11/05 10:49:35;;;;;;;1.70;0.70;;;13.30;1.00;;;;;;5011451;28;20916;-67
2023/11/05 10:52:01;;;;;;;1.93;1.37;;;13.10;1.00;;;;;;5008510;28;20445;-67
2023/11/05 10:54:27;;;;;;;1.80;0.60;;;12.80;1.00;;;;;;5009943;28;20424;-66
2023/11/05 10:56:53;;;;;;;2.30;0.73;;;12.60;1.00;;;;;;5012332;28;20438;-66
2023/11/05 10:59:37;;;;;;;2.37;0.87;;;12.60;1.00;;;;;;5015200;28;20792;-67
2023/11/05 11:02:05;;;;;;;2.40;0.77;;;12.60;1.00;;;;;;5015209;28;20191;-67
2023/11/05 11:04:30;;;;;;;2.27;0.77;;;12.40;1.00;;;;;;5015126;28;20475;-67
2023/11/05 11:06:56;;;;;;;2.10;0.60;;;12.30;1.00;;;;;;4997659;28;20426;-67
2023/11/05 11:09:27;;;;;;;2.50;1.07;;;12.50;1.00;;;;;;5015350;28;20198;-67
2023/11/05 11:12:18;;;;;;;1.90;0.70;;;12.60;1.00;;;;;;5014789;28;20220;-67
2023/11/05 11:14:45;;;;;;;1.70;0.60;;;12.50;1.50;;;;;;5014856;28;20809;-67
2023/11/05 11:17:14;;;;;;;2.00;0.87;;;12.90;1.20;;;;;;5015206;28;20424;-67
2023/11/05 11:19:41;;;;;;;1.97;0.83;;;13.00;1.00;;;;;;5015085;28;20454;-67
2023/11/05 11:22:06;;;;;;;2.03;0.90;;;13.30;1.00;;;;;;4996902;28;20537;-67
2023/11/05 11:24:33;;;;;;;1.97;1.00;;;13.60;1.00;;;;;;5013710;28;20511;-67
2023/11/05 11:27:00;;;;;;;2.00;1.20;;;13.50;1.00;;;;;;4997360;28;20180;-67
2023/11/05 11:29:26;;;;;;;1.60;0.60;;;13.50;1.00;;;;;;5014794;28;20426;-67
2023/11/05 11:31:53;;;;;;;2.10;0.73;;;;;;;;;;4997007;28;20434;-67
2023/11/05 11:34:20;;;;;;;1.87;0.60;;;13.40;1.00;;;;;;5014446;28;20414;-67
2023/11/05 11:36:57;;;;;;;6.07;0.97;;;13.50;1.00;;;;;;5014820;28;20428;-67
2023/11/05 11:39:23;;;;;;;2.27;0.90;;;13.50;1.00;;;;;;5014645;28;20457;-67
2023/11/05 11:41:48;;;;;;;1.83;0.60;;;13.90;1.00;;;;;;5014879;28;20442;-67
2023/11/05 11:44:15;;;;;;;2.53;0.70;;;14.00;1.00;;;;;;5014979;28;20265;-68
2023/11/05 11:46:40;;;;;;;2.10;0.97;;;13.80;1.00;;;;;;5014839;28;20175;-68
2023/11/05 11:49:12;;;;;;;1.80;0.77;;;13.80;1.00;;;;;;5017412;28;20414;-69
2023/11/05 11:51:38;;;;;;;2.57;0.77;;;13.70;1.00;;;;;;5018842;28;20281;-69
2023/11/05 11:54:04;;;;;;;2.47;0.80;;;13.40;1.00;;;;;;5018953;28;20913;-66
2023/11/05 11:56:31;;;;;;;2.37;0.97;;;13.20;1.00;;;;;;5018784;28;20425;-69
2023/11/05 11:59:04;;;;;;;1.57;0.57;;;13.10;1.00;;;;;;5018447;28;20547;-69
2023/11/05 12:01:30;;;;;;;4.80;0.60;;;13.10;1.00;;;;;;5015950;28;20841;-69
2023/11/05 12:03:57;;;;;;;1.70;0.70;;;13.00;1.00;;;;;;5014554;28;20415;-68
2023/11/05 12:06:23;;;;;;;1.83;0.90;;;12.90;1.00;;;;;;5014810;28;20505;-68
2023/11/05 12:08:49;;;;;;;1.73;0.70;;;13.10;1.00;;;;;;5013859;28;20510;-68
2023/11/05 12:11:19;;;;;;;1.77;0.50;;;13.20;1.00;;;;;;5014290;28;20504;-68
2023/11/05 12:13:46;;;;;;;2.83;0.70;;;13.40;1.00;;;;;;5014138;28;20430;-67
2023/11/05 12:16:14;;;;;;;1.80;0.80;;;13.30;1.00;;;;;;5014742;28;20805;-67
2023/11/05 12:18:41;;;;;;;2.77;1.07;;;13.00;1.00;;;;;;4996479;28;20470;-66
2023/11/05 12:21:11;;;;;;;2.00;0.80;;;12.80;1.00;;;;;;5013945;28;20481;-69
2023/11/05 12:23:40;;;;;;;1.90;0.70;;;12.70;1.00;;;;;;5013930;28;20478;-68
2023/11/05 12:26:09;;;;;;;2.47;1.00;;;12.50;1.00;;;;;;5014211;28;20425;-67
2023/11/05 12:28:34;;;;;;;2.47;1.10;;;12.30;1.00;;;;;;5013897;28;20438;-68
2023/11/05 12:31:06;;;;;;;1.60;0.50;;;12.40;2.40;;;;;;5013556;28;20462;-68
2023/11/05 12:33:34;;;;;;;2.30;0.67;;;12.30;2.30;;;;;;5013514;28;20180;-67
2023/11/05 12:35:59;;;;;;;3.70;0.80;;;12.40;1.60;;;;;;5014126;28;21174;-69
2023/11/05 12:38:25;;;;;;;1.80;0.73;;;12.50;1.80;;;;;;5013889;28;20544;-68
2023/11/05 12:40:52;;;;;;;2.30;0.90;;;12.60;1.00;;;;;;5013733;28;20561;-68
2023/11/05 12:43:18;;;;;;;1.97;0.77;;;12.70;1.00;;;;;;5013517;28;20412;-67
2023/11/05 12:45:43;;;;;;;1.70;0.70;;;12.70;1.00;;;;;;5013775;28;20434;-69
2023/11/05 12:48:09;;;;;;;1.93;0.80;;;12.60;1.00;;;;;;5013666;28;20419;-67
2023/11/05 12:50:35;;;;;;;1.63;0.50;;;12.40;2.40;;;;;;5014068;28;20550;-70
2023/11/05 12:53:01;;;;;;;1.70;0.67;;;12.10;5.60;;;;;;5012332;28;20210;-68
2023/11/05 12:55:29;;;;;;;2.00;0.70;;;11.90;9.10;;;;;;5013415;28;20420;-69